レゾリュート の空港の天気 - METARとTAF

レゾリュート空港 ( CYRB / YRB ) - カナダ ヌナブト準州レゾリュート
飛行場実況気象(Metar)
観測時間12/09 23:00 CST (12/10 05:00 UTC)
風向・風速南 12m/s
視程1200m
天気現象高い地吹雪 弱い雪
全天を覆う雲 雲底高度 490m
気温-18℃
湿度84%
気圧1003.1hPa
METARCYRB 100500Z 17024KT 3/4SM R35/P6000FT/U -SN BLSN OVC016 M18/M20 A2959 RMK BLSN4SC4 SLP031
過去の天気等 Google飛行場航空写真 Wunderground天気予報

過去48時間のMETAR

飛行場予報(TAF)
発表時間: 12/09 17:38 CST (12/09 23:38 UTC)
予報対象時間: 9日18時 CST ~ 10日18時 CST
風向・風速南南東 20m/s 瞬間風速 25m/s
視程400m
天気現象雪 強い高い地吹雪
全天を覆う雲 鉛直視程 120m
9日18時 CST ~ 9日21時 CST に一時的に
視程800m
天気現象高い地吹雪
全天の4割程度の雲 雲底高度 460m
9日19時 CST ~ 9日21時 CST に徐々に
風向・風速南 11m/s 瞬間風速 16m/s
9日21時 CST から
風向・風速南 11m/s 瞬間風速 16m/s
視程3220m
天気現象弱い雪 高い地吹雪
全天の8割程度の雲 雲底高度 300m
全天を覆う雲 雲底高度 910m
9日21時 CST ~ 10日4時 CST に一時的に
視程800m
天気現象弱い雪 高い地吹雪
全天を覆う雲 鉛直視程 180m
10日6時 CST から
風向・風速南南東 11m/s
視程800m
天気現象雪 高い地吹雪
全天を覆う雲 雲底高度 610m
10日8時 CST から
風向・風速南東 13m/s
視程400m
天気現象雪 強い高い地吹雪
全天を覆う雲 鉛直視程 150m
TAF CYRB 092338Z 1000/1024 15038G48KT 1/4SM SN +BLSN VV004
TEMPO 1000/1003 1/2SM BLSN SCT015
BECMG 1001/1003 19022G32KT
FM100300 18022G32KT 2SM -SN BLSN BKN010 OVC030
TEMPO 1003/1010 1/2SM -SN BLSN VV006
FM101200 15022KT 1/2SM SN BLSN OVC020
FM101400 13026KT 1/4SM SN +BLSN VV005 RMK NXT FCST BY 100600Z